createdAt,value
2023-01-12T00:01:15.677Z,37.40
2023-01-12T00:04:21.243Z,41.95
2023-01-12T00:07:23.884Z,32.60
2023-01-12T00:10:26.517Z,32.78
2023-01-12T00:13:29.974Z,32.95
2023-01-12T00:16:35.806Z,35.63
2023-01-12T00:19:39.376Z,37.20
2023-01-12T00:22:42.021Z,39.03
2023-01-12T00:25:50.791Z,33.50
2023-01-12T00:28:54.157Z,38.72
2023-01-12T00:31:58.499Z,34.88
2023-01-12T00:35:01.180Z,35.33
2023-01-12T00:38:06.355Z,39.40
2023-01-12T00:41:11.517Z,38.45
2023-01-12T00:44:32.435Z,36.05
2023-01-12T00:47:35.402Z,34.00
2023-01-12T00:50:37.837Z,33.55
2023-01-12T00:53:40.604Z,33.87
2023-01-12T00:56:43.091Z,34.40
2023-01-12T00:59:46.526Z,34.45
2023-01-12T01:02:49.208Z,37.38
2023-01-12T01:05:51.925Z,37.05
2023-01-12T01:08:54.301Z,29.53
2023-01-12T01:11:58.314Z,40.40
2023-01-12T01:15:00.699Z,38.10
2023-01-12T01:18:03.424Z,34.13
2023-01-12T01:21:06.113Z,39.78
2023-01-12T01:24:14.281Z,35.70
2023-01-12T01:27:16.871Z,37.45
2023-01-12T01:30:19.534Z,35.70
2023-01-12T01:33:21.844Z,40.97
2023-01-12T01:36:24.572Z,46.75
2023-01-12T01:39:26.947Z,43.80
2023-01-12T01:42:29.662Z,47.85
2023-01-12T01:45:32.475Z,44.70
2023-01-12T01:48:39.209Z,45.05
2023-01-12T01:51:42.332Z,50.42
2023-01-12T01:54:56.115Z,51.27
2023-01-12T01:58:02.865Z,48.33
2023-01-12T02:01:06.439Z,47.67
2023-01-12T02:04:09.503Z,33.50
2023-01-12T02:07:12.566Z,33.75
2023-01-12T02:10:15.361Z,35.77
2023-01-12T02:13:37.351Z,35.20
2023-01-12T02:17:01.268Z,33.28
2023-01-12T02:20:12.706Z,40.25
2023-01-12T02:23:32.019Z,48.72
2023-01-12T02:26:55.049Z,50.73
2023-01-12T02:30:30.699Z,52.15
2023-01-12T02:33:48.352Z,53.80
2023-01-12T02:37:21.636Z,51.97
2023-01-12T02:40:53.166Z,52.72
2023-01-12T02:43:55.868Z,53.53
2023-01-12T02:47:05.274Z,43.63
2023-01-12T02:50:12.797Z,45.05
2023-01-12T02:53:27.967Z,44.63
2023-01-12T02:56:34.784Z,38.03
2023-01-12T02:59:41.972Z,45.70
2023-01-12T03:02:44.432Z,41.17
2023-01-12T03:05:47.612Z,39.17
2023-01-12T03:08:52.570Z,42.53
2023-01-12T03:12:03.844Z,35.53
2023-01-12T03:15:08.830Z,40.90
2023-01-12T03:18:35.229Z,37.75
2023-01-12T03:21:42.580Z,36.78
2023-01-12T03:24:56.698Z,36.85
2023-01-12T03:28:01.046Z,42.47
2023-01-12T03:31:09.460Z,36.87
2023-01-12T03:34:12.002Z,36.80
2023-01-12T03:37:25.020Z,33.25
2023-01-12T03:40:35.420Z,31.55
2023-01-12T03:44:00.248Z,27.90
2023-01-12T03:47:09.932Z,24.10
2023-01-12T03:50:35.177Z,23.20
2023-01-12T03:53:40.054Z,18.33
2023-01-12T03:56:45.482Z,17.87
2023-01-12T03:59:49.072Z,19.10
2023-01-12T04:03:09.261Z,18.10
2023-01-12T04:06:11.921Z,16.73
2023-01-12T04:09:14.251Z,16.87
2023-01-12T04:12:16.854Z,16.42
2023-01-12T04:15:19.338Z,18.65
2023-01-12T04:18:22.034Z,18.97
2023-01-12T04:21:43.458Z,19.25
2023-01-12T04:24:46.740Z,14.95
2023-01-12T04:27:56.875Z,12.88
2023-01-12T04:30:59.491Z,15.48
2023-01-12T04:34:02.130Z,12.73
2023-01-12T04:37:05.162Z,15.38
2023-01-12T04:40:08.969Z,16.35
2023-01-12T04:43:12.079Z,13.38
2023-01-12T04:46:14.489Z,16.70
2023-01-12T04:49:18.101Z,14.83
2023-01-12T04:52:20.454Z,14.55
2023-01-12T04:55:23.231Z,17.33
2023-01-12T04:58:25.630Z,16.08
2023-01-12T05:01:29.952Z,23.92
2023-01-12T05:04:32.544Z,21.40
2023-01-12T05:07:36.689Z,18.58
2023-01-12T05:10:39.459Z,20.88
2023-01-12T05:13:42.517Z,18.37
2023-01-12T05:16:45.037Z,21.92
2023-01-12T05:19:49.651Z,19.73
2023-01-12T05:22:52.760Z,24.75
2023-01-12T05:25:59.306Z,25.85
2023-01-12T05:29:01.751Z,27.92
2023-01-12T05:32:04.618Z,26.40
2023-01-12T05:35:08.836Z,24.93
2023-01-12T05:38:11.918Z,20.10
2023-01-12T05:41:14.870Z,19.65
2023-01-12T05:44:17.625Z,21.30
2023-01-12T05:47:20.085Z,21.80
2023-01-12T05:50:22.759Z,16.47
2023-01-12T05:53:26.822Z,23.02
2023-01-12T05:56:30.509Z,22.75
2023-01-12T05:59:33.041Z,18.65
2023-01-12T06:02:35.710Z,23.38
2023-01-12T06:05:38.463Z,22.87
2023-01-12T06:08:40.801Z,28.17
2023-01-12T06:12:02.059Z,20.48
2023-01-12T06:15:04.757Z,26.85
2023-01-12T06:18:07.371Z,25.88
2023-01-12T06:21:10.330Z,30.37
2023-01-12T06:24:12.936Z,30.00
2023-01-12T06:27:16.621Z,33.30
2023-01-12T06:30:19.304Z,33.72
2023-01-12T06:33:21.651Z,25.58
2023-01-12T06:36:24.467Z,24.93
2023-01-12T06:39:28.991Z,25.17
2023-01-12T06:42:31.942Z,27.05
2023-01-12T06:45:34.252Z,37.83
2023-01-12T06:48:39.184Z,41.53
2023-01-12T06:51:42.235Z,48.67
2023-01-12T06:54:44.909Z,43.83
2023-01-12T06:57:47.279Z,42.60
2023-01-12T07:00:50.534Z,47.90
2023-01-12T07:03:53.657Z,52.62
2023-01-12T07:06:56.391Z,44.47
2023-01-12T07:09:58.676Z,45.25
2023-01-12T07:13:01.295Z,44.92
2023-01-12T07:16:04.049Z,45.55
2023-01-12T07:19:06.689Z,42.45
2023-01-12T07:22:09.304Z,43.83
2023-01-12T07:25:11.936Z,39.38
2023-01-12T07:28:14.642Z,35.63
2023-01-12T07:31:19.440Z,34.10
2023-01-12T07:34:21.996Z,36.17
2023-01-12T07:37:24.700Z,36.17
2023-01-12T07:40:27.160Z,31.52
2023-01-12T07:43:30.583Z,28.65
2023-01-12T07:46:33.064Z,30.58
2023-01-12T07:49:35.789Z,29.45
2023-01-12T07:52:38.358Z,31.00
2023-01-12T07:55:43.718Z,31.50
2023-01-12T07:58:49.678Z,31.80
2023-01-12T08:01:53.885Z,29.63
2023-01-12T08:04:57.073Z,33.95
2023-01-12T08:08:00.007Z,29.40
2023-01-12T08:11:05.044Z,27.08
2023-01-12T08:14:07.388Z,24.80
2023-01-12T08:17:21.784Z,28.73
2023-01-12T08:20:30.534Z,29.80
2023-01-12T08:23:41.668Z,24.83
2023-01-12T08:26:48.211Z,26.35
2023-01-12T08:29:54.553Z,24.55
2023-01-12T08:33:00.778Z,27.67
2023-01-12T08:36:10.408Z,29.42
2023-01-12T08:39:12.906Z,26.63
2023-01-12T08:42:15.639Z,26.87
2023-01-12T08:45:18.157Z,27.55
2023-01-12T08:48:20.953Z,31.90
2023-01-12T08:51:23.358Z,29.67
2023-01-12T08:54:26.167Z,24.17
2023-01-12T08:57:28.766Z,28.42
2023-01-12T09:00:31.672Z,30.40
2023-01-12T09:03:34.810Z,28.73
2023-01-12T09:06:40.635Z,28.87
2023-01-12T09:09:43.016Z,28.97
2023-01-12T09:12:45.683Z,27.70
2023-01-12T09:16:10.886Z,25.95
2023-01-12T09:19:11.062Z,23.87
2023-01-12T09:22:13.378Z,27.58
2023-01-12T09:25:16.274Z,23.63
2023-01-12T09:28:18.646Z,27.55
2023-01-12T09:31:23.558Z,27.02
2023-01-12T09:34:28.525Z,22.92
2023-01-12T09:37:31.508Z,21.92
2023-01-12T09:40:35.627Z,25.37
2023-01-12T09:43:59.365Z,27.42
2023-01-12T09:47:05.405Z,25.88
2023-01-12T09:50:28.272Z,30.70
2023-01-12T09:53:34.334Z,29.55
2023-01-12T09:57:01.857Z,27.17
2023-01-12T10:00:13.839Z,26.05
2023-01-12T10:03:41.663Z,25.95
2023-01-12T10:06:44.310Z,25.85
2023-01-12T10:09:47.057Z,24.95
2023-01-12T10:12:59.971Z,24.20
2023-01-12T10:16:14.567Z,26.05
2023-01-12T10:19:31.152Z,30.60
2023-01-12T10:23:09.003Z,25.25
2023-01-12T10:26:18.592Z,27.70
2023-01-12T10:29:21.254Z,28.30
2023-01-12T10:32:31.384Z,27.27
2023-01-12T10:35:59.526Z,27.40
2023-01-12T10:39:04.885Z,26.37
2023-01-12T10:42:35.880Z,28.15
2023-01-12T10:45:38.384Z,29.90
2023-01-12T10:48:45.057Z,25.20
2023-01-12T10:52:02.157Z,23.48
2023-01-12T10:55:05.388Z,25.05
2023-01-12T10:58:30.336Z,27.20
2023-01-12T11:02:11.856Z,20.90
2023-01-12T11:05:30.768Z,23.80
2023-01-12T11:08:33.410Z,22.45
2023-01-12T11:11:35.845Z,22.05
2023-01-12T11:14:38.507Z,25.73
2023-01-12T11:18:08.877Z,24.77
2023-01-12T11:21:14.967Z,28.42
2023-01-12T11:24:23.236Z,22.75
2023-01-12T11:27:31.308Z,22.85
2023-01-12T11:30:46.851Z,19.80
2023-01-12T11:34:00.362Z,17.37
2023-01-12T11:37:10.820Z,20.00
2023-01-12T11:40:25.756Z,20.15
2023-01-12T11:43:46.450Z,25.30
2023-01-12T11:46:56.174Z,22.13
2023-01-12T11:50:05.920Z,23.50
2023-01-12T11:53:19.146Z,22.83
2023-01-12T11:56:30.320Z,20.30
2023-01-12T11:59:45.070Z,21.00
2023-01-12T12:02:50.351Z,16.33
2023-01-12T12:06:22.708Z,18.67
2023-01-12T12:09:39.566Z,16.70
2023-01-12T12:12:49.898Z,17.77
2023-01-12T12:16:16.842Z,19.30
2023-01-12T12:19:27.537Z,20.02
2023-01-12T12:22:53.089Z,22.87
2023-01-12T12:26:21.833Z,22.58
2023-01-12T12:29:59.047Z,19.48
2023-01-12T12:33:20.796Z,19.92
2023-01-12T12:37:02.591Z,23.58
2023-01-12T12:40:56.381Z,25.47
2023-01-12T12:44:52.593Z,17.58
2023-01-12T12:48:01.685Z,20.25
2023-01-12T12:51:08.602Z,23.15
2023-01-12T12:54:17.217Z,20.75
2023-01-12T12:57:19.531Z,16.77
2023-01-12T13:00:46.776Z,23.62
2023-01-12T13:03:51.938Z,18.25
2023-01-12T13:06:54.598Z,18.40
2023-01-12T13:10:15.429Z,17.00
2023-01-12T13:13:33.546Z,15.67
2023-01-12T13:16:35.873Z,17.00
2023-01-12T13:19:40.053Z,18.05
2023-01-12T13:22:42.380Z,18.62
2023-01-12T13:25:51.155Z,16.58
2023-01-12T13:29:24.900Z,17.33
2023-01-12T13:32:42.897Z,14.48
2023-01-12T13:35:46.254Z,15.85
2023-01-12T13:38:59.401Z,18.67
2023-01-12T13:42:20.670Z,18.15
2023-01-12T13:45:24.003Z,15.40
2023-01-12T13:48:28.388Z,18.20
2023-01-12T13:51:50.597Z,15.98
2023-01-12T13:54:53.014Z,14.32
2023-01-12T13:57:58.187Z,20.85
2023-01-12T14:01:01.506Z,17.50
2023-01-12T14:04:19.849Z,20.98
2023-01-12T14:07:37.781Z,18.87
2023-01-12T14:10:54.065Z,22.35
2023-01-12T14:14:44.585Z,23.67
2023-01-12T14:17:52.701Z,21.10
2023-01-12T14:20:59.636Z,27.23
2023-01-12T14:24:16.446Z,25.58
2023-01-12T14:27:23.434Z,21.65
2023-01-12T14:30:28.543Z,20.17
2023-01-12T14:33:35.735Z,27.80
2023-01-12T14:36:44.202Z,27.10
2023-01-12T14:39:46.875Z,29.42
2023-01-12T14:43:08.486Z,25.12
2023-01-12T14:46:27.363Z,28.95
2023-01-12T14:49:35.670Z,20.43
2023-01-12T14:52:38.882Z,20.05
2023-01-12T14:55:41.774Z,28.50
2023-01-12T14:58:46.602Z,22.83
2023-01-12T15:01:50.425Z,21.77
2023-01-12T15:05:03.182Z,22.60
2023-01-12T15:08:08.888Z,21.42
2023-01-12T15:11:11.207Z,29.60
2023-01-12T15:14:22.312Z,17.23
2023-01-12T15:17:43.345Z,18.83
2023-01-12T15:21:04.886Z,16.83
2023-01-12T15:24:49.027Z,15.73
2023-01-12T15:27:51.677Z,14.95
2023-01-12T15:30:55.769Z,16.75
2023-01-12T15:33:58.757Z,26.87
2023-01-12T15:37:01.140Z,16.60
2023-01-12T15:40:05.553Z,17.33
2023-01-12T15:43:17.068Z,15.20
2023-01-12T15:46:22.241Z,18.85
2023-01-12T15:49:24.684Z,26.10
2023-01-12T15:52:27.327Z,20.13
2023-01-12T15:55:36.049Z,15.27
2023-01-12T15:58:38.911Z,18.58
2023-01-12T16:01:47.086Z,14.75
2023-01-12T16:04:49.933Z,17.45
2023-01-12T16:07:53.093Z,15.83
2023-01-12T16:11:13.443Z,13.95
2023-01-12T16:14:16.035Z,11.25
2023-01-12T16:17:19.013Z,14.82
2023-01-12T16:20:21.495Z,20.05
2023-01-12T16:23:24.420Z,16.43
2023-01-12T16:26:28.530Z,24.05
2023-01-12T16:29:31.417Z,14.05
2023-01-12T16:32:33.837Z,16.55
2023-01-12T16:35:36.688Z,23.02
2023-01-12T16:38:39.139Z,15.97
2023-01-12T16:41:42.083Z,16.40
2023-01-12T16:44:44.608Z,16.65
2023-01-12T16:47:47.198Z,14.13
2023-01-12T16:50:49.561Z,16.40
2023-01-12T16:53:55.148Z,19.70
2023-01-12T16:56:58.930Z,20.85
2023-01-12T17:00:01.893Z,23.62
2023-01-12T17:03:04.941Z,13.77
2023-01-12T17:06:14.892Z,18.65
2023-01-12T17:09:17.958Z,16.40
2023-01-12T17:12:20.788Z,15.20
2023-01-12T17:15:23.351Z,11.12
2023-01-12T17:18:27.266Z,18.92
2023-01-12T17:21:29.773Z,24.08
2023-01-12T17:24:34.104Z,16.00
2023-01-12T17:27:36.723Z,18.85
2023-01-12T17:30:39.585Z,16.30
2023-01-12T17:33:42.235Z,18.00
2023-01-12T17:36:45.235Z,19.60
2023-01-12T17:39:47.689Z,18.53
2023-01-12T17:43:02.786Z,15.10
2023-01-12T17:46:08.588Z,17.12
2023-01-12T17:49:12.217Z,19.70
2023-01-12T17:52:14.845Z,17.10
2023-01-12T17:55:17.554Z,20.87
2023-01-12T17:58:19.953Z,17.40
2023-01-12T18:01:24.485Z,20.33
2023-01-12T18:04:27.308Z,22.40
2023-01-12T18:07:32.004Z,27.25
2023-01-12T18:10:34.705Z,24.47
2023-01-12T18:13:38.002Z,23.67
2023-01-12T18:16:42.230Z,23.73
2023-01-12T18:19:44.641Z,21.45
2023-01-12T18:22:47.341Z,19.37
2023-01-12T18:25:49.690Z,19.93
2023-01-12T18:28:53.946Z,30.00
2023-01-12T18:31:56.285Z,25.27
2023-01-12T18:34:58.970Z,22.92
2023-01-12T18:38:01.359Z,23.05
2023-01-12T18:41:22.744Z,28.43
2023-01-12T18:44:25.442Z,23.25
2023-01-12T18:47:46.789Z,28.23
2023-01-12T18:51:11.773Z,21.25
2023-01-12T18:54:14.407Z,22.52
2023-01-12T18:57:18.744Z,24.40
2023-01-12T19:00:23.774Z,28.67
2023-01-12T19:03:26.123Z,21.90
2023-01-12T19:06:42.369Z,28.52
2023-01-12T19:09:44.749Z,23.58
2023-01-12T19:12:49.227Z,28.50
2023-01-12T19:16:10.516Z,28.23
2023-01-12T19:19:13.303Z,28.08
2023-01-12T19:22:34.320Z,27.23
2023-01-12T19:25:55.600Z,29.27
2023-01-12T19:28:57.988Z,29.33
2023-01-12T19:32:00.657Z,31.17
2023-01-12T19:35:10.907Z,36.75
2023-01-12T19:38:14.905Z,36.25
2023-01-12T19:41:35.870Z,32.15
2023-01-12T19:44:38.578Z,32.93
2023-01-12T19:47:41.112Z,33.50
2023-01-12T19:50:44.999Z,35.85
2023-01-12T19:53:47.376Z,45.10
2023-01-12T19:56:50.108Z,40.55
2023-01-12T19:59:52.445Z,43.20
2023-01-12T20:02:55.277Z,46.55
2023-01-12T20:05:58.355Z,37.78
2023-01-12T20:09:00.752Z,38.97
2023-01-12T20:12:05.276Z,43.47
2023-01-12T20:15:08.354Z,43.47
2023-01-12T20:18:11.149Z,42.08
2023-01-12T20:21:13.736Z,37.88
2023-01-12T20:24:16.465Z,38.83
2023-01-12T20:27:18.940Z,38.28
2023-01-12T20:30:37.023Z,43.57
2023-01-12T20:33:39.834Z,42.72
2023-01-12T20:36:46.000Z,43.15
2023-01-12T20:39:53.157Z,39.80
2023-01-12T20:42:55.805Z,37.22
2023-01-12T20:45:58.146Z,42.33
2023-01-12T20:49:02.509Z,41.60
2023-01-12T20:52:04.854Z,47.65
2023-01-12T20:55:08.322Z,46.70
2023-01-12T20:58:11.233Z,44.95
2023-01-12T21:01:15.485Z,44.20
2023-01-12T21:04:19.479Z,46.05
2023-01-12T21:07:22.231Z,52.13
2023-01-12T21:10:24.650Z,43.10
2023-01-12T21:13:27.271Z,53.50
2023-01-12T21:16:31.273Z,51.83
2023-01-12T21:19:34.666Z,60.28
2023-01-12T21:22:37.132Z,61.80
2023-01-12T21:25:43.846Z,63.95
2023-01-12T21:28:46.373Z,60.20
2023-01-12T21:31:49.293Z,58.10
2023-01-12T21:34:51.728Z,59.05
2023-01-12T21:37:54.483Z,65.78
2023-01-12T21:41:01.787Z,57.97
2023-01-12T21:44:04.430Z,51.05
2023-01-12T21:47:06.934Z,63.07
2023-01-12T21:50:10.336Z,51.40
2023-01-12T21:53:18.608Z,58.75
2023-01-12T21:56:21.237Z,52.33
2023-01-12T21:59:23.641Z,61.42
2023-01-12T22:02:26.292Z,50.47
2023-01-12T22:05:29.302Z,59.08
2023-01-12T22:08:33.881Z,56.95
2023-01-12T22:11:38.657Z,56.90
2023-01-12T22:14:40.974Z,58.03
2023-01-12T22:17:44.130Z,60.93
2023-01-12T22:20:46.652Z,55.90
2023-01-12T22:23:49.704Z,54.58
2023-01-12T22:26:52.317Z,53.87
2023-01-12T22:29:55.569Z,51.10
2023-01-12T22:32:57.984Z,55.10
2023-01-12T22:36:05.272Z,52.30
2023-01-12T22:39:07.647Z,51.42
2023-01-12T22:42:10.289Z,53.83
2023-01-12T22:45:13.605Z,47.78
2023-01-12T22:48:16.727Z,48.50
2023-01-12T22:51:21.190Z,51.60
2023-01-12T22:54:23.798Z,48.30
2023-01-12T22:57:26.124Z,47.58
2023-01-12T23:00:28.752Z,49.60
2023-01-12T23:03:31.605Z,43.43
2023-01-12T23:06:37.299Z,49.25
2023-01-12T23:09:39.719Z,46.17
2023-01-12T23:13:02.646Z,49.22
2023-01-12T23:16:07.121Z,48.85
2023-01-12T23:19:10.542Z,53.23
2023-01-12T23:22:12.874Z,48.25
2023-01-12T23:25:15.532Z,51.13
2023-01-12T23:28:17.883Z,47.72
2023-01-12T23:31:22.422Z,44.10
2023-01-12T23:34:24.755Z,47.80
2023-01-12T23:37:27.349Z,48.25
2023-01-12T23:40:29.789Z,55.55
2023-01-12T23:43:33.911Z,47.40
2023-01-12T23:46:39.003Z,44.05
2023-01-12T23:49:42.955Z,46.77
2023-01-12T23:52:48.841Z,52.70
2023-01-12T23:55:52.431Z,51.50
2023-01-12T23:58:55.078Z,52.75
